sensor_id;sensor_type;location;lat;lon;timestamp;pressure;altitude;pressure_sealevel;temperature;humidity
5574;BME280;2563;52.242;7.956;2022-10-30T00:02:04;100813.59;;;17.36;100.00
5574;BME280;2563;52.242;7.956;2022-10-30T00:04:30;100822.19;;;17.38;100.00
5574;BME280;2563;52.242;7.956;2022-10-30T00:06:55;100812.44;;;17.42;100.00
5574;BME280;2563;52.242;7.956;2022-10-30T00:09:20;100810.63;;;17.44;100.00
5574;BME280;2563;52.242;7.956;2022-10-30T00:11:46;100806.56;;;17.38;100.00
5574;BME280;2563;52.242;7.956;2022-10-30T00:14:11;100804.19;;;17.34;100.00
5574;BME280;2563;52.242;7.956;2022-10-30T00:16:38;100813.88;;;17.30;100.00
5574;BME280;2563;52.242;7.956;2022-10-30T00:19:03;100814.88;;;17.28;100.00
5574;BME280;2563;52.242;7.956;2022-10-30T00:21:28;100809.41;;;17.34;100.00
5574;BME280;2563;52.242;7.956;2022-10-30T00:23:54;100805.03;;;17.34;100.00
5574;BME280;2563;52.242;7.956;2022-10-30T00:26:20;100809.47;;;17.32;100.00
5574;BME280;2563;52.242;7.956;2022-10-30T00:28:50;100798.22;;;17.32;100.00
5574;BME280;2563;52.242;7.956;2022-10-30T00:31:15;100800.97;;;17.29;100.00
5574;BME280;2563;52.242;7.956;2022-10-30T00:33:41;100801.09;;;17.26;100.00
5574;BME280;2563;52.242;7.956;2022-10-30T00:36:06;100806.50;;;17.21;100.00
5574;BME280;2563;52.242;7.956;2022-10-30T00:38:32;100806.81;;;17.15;100.00
5574;BME280;2563;52.242;7.956;2022-10-30T00:40:57;100791.91;;;17.18;100.00
5574;BME280;2563;52.242;7.956;2022-10-30T00:43:31;100803.91;;;17.21;100.00
5574;BME280;2563;52.242;7.956;2022-10-30T00:45:59;100793.25;;;17.08;100.00
5574;BME280;2563;52.242;7.956;2022-10-30T00:48:27;100800.59;;;17.00;100.00
5574;BME280;2563;52.242;7.956;2022-10-30T00:50:52;100805.84;;;16.98;100.00
5574;BME280;2563;52.242;7.956;2022-10-30T00:53:19;100807.00;;;16.93;100.00
5574;BME280;2563;52.242;7.956;2022-10-30T00:55:54;100807.41;;;16.84;100.00
5574;BME280;2563;52.242;7.956;2022-10-30T00:58:25;100805.34;;;16.71;100.00
5574;BME280;2563;52.242;7.956;2022-10-30T01:00:53;100810.56;;;16.71;100.00
5574;BME280;2563;52.242;7.956;2022-10-30T01:03:20;100810.25;;;16.77;100.00
5574;BME280;2563;52.242;7.956;2022-10-30T01:05:51;100811.00;;;16.81;100.00
5574;BME280;2563;52.242;7.956;2022-10-30T01:08:18;100809.25;;;16.82;100.00
5574;BME280;2563;52.242;7.956;2022-10-30T01:10:43;100810.13;;;16.80;100.00
5574;BME280;2563;52.242;7.956;2022-10-30T01:13:09;100817.19;;;16.78;100.00
5574;BME280;2563;52.242;7.956;2022-10-30T01:15:39;100812.84;;;16.79;100.00
5574;BME280;2563;52.242;7.956;2022-10-30T01:18:09;100812.69;;;16.82;100.00
5574;BME280;2563;52.242;7.956;2022-10-30T01:23:42;100809.72;;;16.90;100.00
5574;BME280;2563;52.242;7.956;2022-10-30T01:26:18;100814.22;;;16.86;100.00
5574;BME280;2563;52.242;7.956;2022-10-30T01:37:03;100823.38;;;16.55;100.00
5574;BME280;2563;52.242;7.956;2022-10-30T01:39:34;100823.16;;;16.41;100.00
5574;BME280;2563;52.242;7.956;2022-10-30T01:42:44;100815.16;;;16.46;100.00
5574;BME280;2563;52.242;7.956;2022-10-30T01:45:28;100824.28;;;16.35;100.00
5574;BME280;2563;52.242;7.956;2022-10-30T01:59:31;100819.34;;;16.09;100.00
5574;BME280;2563;52.242;7.956;2022-10-30T02:02:00;100818.69;;;16.04;100.00
5574;BME280;2563;52.242;7.956;2022-10-30T02:04:25;100816.75;;;16.09;100.00
5574;BME280;2563;52.242;7.956;2022-10-30T02:06:50;100828.66;;;16.14;100.00
5574;BME280;2563;52.242;7.956;2022-10-30T02:09:16;100819.34;;;16.09;100.00
5574;BME280;2563;52.242;7.956;2022-10-30T02:11:43;100819.59;;;16.23;100.00
5574;BME280;2563;52.242;7.956;2022-10-30T02:14:11;100812.88;;;16.19;100.00
5574;BME280;2563;52.242;7.956;2022-10-30T02:16:43;100818.84;;;16.21;100.00
5574;BME280;2563;52.242;7.956;2022-10-30T02:19:10;100817.53;;;16.31;100.00
5574;BME280;2563;52.242;7.956;2022-10-30T02:21:35;100813.72;;;16.20;100.00
5574;BME280;2563;52.242;7.956;2022-10-30T02:24:00;100809.03;;;16.07;100.00
5574;BME280;2563;52.242;7.956;2022-10-30T02:26:26;100812.94;;;16.17;100.00
5574;BME280;2563;52.242;7.956;2022-10-30T02:28:51;100808.47;;;16.01;100.00
5574;BME280;2563;52.242;7.956;2022-10-30T02:31:16;100809.22;;;15.82;100.00
5574;BME280;2563;52.242;7.956;2022-10-30T02:33:45;100801.28;;;15.65;100.00
5574;BME280;2563;52.242;7.956;2022-10-30T02:36:11;100805.44;;;15.69;100.00
5574;BME280;2563;52.242;7.956;2022-10-30T02:38:39;100805.44;;;15.69;100.00
5574;BME280;2563;52.242;7.956;2022-10-30T02:41:05;100799.41;;;15.68;100.00
5574;BME280;2563;52.242;7.956;2022-10-30T02:43:30;100791.72;;;15.65;100.00
5574;BME280;2563;52.242;7.956;2022-10-30T02:45:55;100785.97;;;15.59;100.00
5574;BME280;2563;52.242;7.956;2022-10-30T02:48:21;100794.00;;;15.52;100.00
5574;BME280;2563;52.242;7.956;2022-10-30T02:50:46;100793.06;;;15.53;100.00
5574;BME280;2563;52.242;7.956;2022-10-30T02:53:11;100793.22;;;15.50;100.00
5574;BME280;2563;52.242;7.956;2022-10-30T02:55:37;100774.03;;;15.55;100.00
5574;BME280;2563;52.242;7.956;2022-10-30T02:58:02;100781.16;;;15.49;100.00
5574;BME280;2563;52.242;7.956;2022-10-30T03:00:27;100787.19;;;15.50;100.00
5574;BME280;2563;52.242;7.956;2022-10-30T03:02:56;100774.63;;;15.39;100.00
5574;BME280;2563;52.242;7.956;2022-10-30T03:05:22;100774.13;;;15.31;100.00
5574;BME280;2563;52.242;7.956;2022-10-30T03:07:47;100766.00;;;15.18;100.00
5574;BME280;2563;52.242;7.956;2022-10-30T03:10:14;100773.69;;;15.20;100.00
5574;BME280;2563;52.242;7.956;2022-10-30T03:12:39;100773.59;;;15.23;100.00
5574;BME280;2563;52.242;7.956;2022-10-30T03:15:05;100770.06;;;15.24;100.00
5574;BME280;2563;52.242;7.956;2022-10-30T03:17:30;100766.00;;;15.18;100.00
5574;BME280;2563;52.242;7.956;2022-10-30T03:19:55;100756.94;;;15.06;100.00
5574;BME280;2563;52.242;7.956;2022-10-30T03:22:21;100769.34;;;14.98;100.00
5574;BME280;2563;52.242;7.956;2022-10-30T03:24:46;100766.84;;;14.97;100.00
5574;BME280;2563;52.242;7.956;2022-10-30T03:27:12;100759.94;;;14.96;100.00
5574;BME280;2563;52.242;7.956;2022-10-30T03:29:37;100759.47;;;14.86;100.00
5574;BME280;2563;52.242;7.956;2022-10-30T03:32:02;100753.41;;;14.87;100.00
5574;BME280;2563;52.242;7.956;2022-10-30T03:34:28;100756.09;;;14.84;100.00
5574;BME280;2563;52.242;7.956;2022-10-30T03:36:53;100749.09;;;14.86;100.00
5574;BME280;2563;52.242;7.956;2022-10-30T03:39:18;100752.94;;;14.76;100.00
5574;BME280;2563;52.242;7.956;2022-10-30T03:41:44;100744.59;;;14.67;100.00
5574;BME280;2563;52.242;7.956;2022-10-30T03:44:09;100743.59;;;14.72;100.00
5574;BME280;2563;52.242;7.956;2022-10-30T03:46:34;100739.34;;;14.71;100.00
5574;BME280;2563;52.242;7.956;2022-10-30T03:49:00;100736.78;;;14.69;100.00
5574;BME280;2563;52.242;7.956;2022-10-30T03:51:25;100733.22;;;14.72;100.00
5574;BME280;2563;52.242;7.956;2022-10-30T03:53:50;100728.19;;;14.68;100.00
5574;BME280;2563;52.242;7.956;2022-10-30T03:56:16;100722.22;;;14.66;100.00
5574;BME280;2563;52.242;7.956;2022-10-30T03:58:41;100715.63;;;14.58;100.00
5574;BME280;2563;52.242;7.956;2022-10-30T04:01:08;100714.31;;;14.46;100.00
5574;BME280;2563;52.242;7.956;2022-10-30T04:03:34;100711.38;;;14.32;100.00
5574;BME280;2563;52.242;7.956;2022-10-30T04:05:59;100710.66;;;14.28;100.00
5574;BME280;2563;52.242;7.956;2022-10-30T04:08:25;100701.09;;;14.30;100.00
5574;BME280;2563;52.242;7.956;2022-10-30T04:10:50;100697.72;;;14.28;100.00
5574;BME280;2563;52.242;7.956;2022-10-30T04:13:16;100690.00;;;14.26;100.00
5574;BME280;2563;52.242;7.956;2022-10-30T04:15:42;100688.22;;;14.29;100.00
5574;BME280;2563;52.242;7.956;2022-10-30T04:18:12;100678.63;;;14.31;100.00
5574;BME280;2563;52.242;7.956;2022-10-30T04:20:38;100687.81;;;14.39;100.00
5574;BME280;2563;52.242;7.956;2022-10-30T04:23:06;100684.19;;;14.43;100.00
5574;BME280;2563;52.242;7.956;2022-10-30T04:25:33;100691.78;;;14.48;100.00
5574;BME280;2563;52.242;7.956;2022-10-30T04:27:59;100683.78;;;14.56;100.00
5574;BME280;2563;52.242;7.956;2022-10-30T04:30:24;100684.97;;;14.45;100.00
5574;BME280;2563;52.242;7.956;2022-10-30T04:32:53;100679.75;;;14.47;100.00
5574;BME280;2563;52.242;7.956;2022-10-30T04:35:21;100684.09;;;14.46;100.00
5574;BME280;2563;52.242;7.956;2022-10-30T04:40:24;100677.56;;;14.60;100.00
5574;BME280;2563;52.242;7.956;2022-10-30T04:42:50;100672.31;;;14.61;100.00
5574;BME280;2563;52.242;7.956;2022-10-30T04:45:16;100674.06;;;14.61;100.00
5574;BME280;2563;52.242;7.956;2022-10-30T04:47:42;100672.44;;;14.58;100.00
5574;BME280;2563;52.242;7.956;2022-10-30T04:50:07;100670.06;;;14.52;100.00
5574;BME280;2563;52.242;7.956;2022-10-30T04:52:33;100670.06;;;14.52;100.00
5574;BME280;2563;52.242;7.956;2022-10-30T04:54:58;100674.31;;;14.53;100.00
5574;BME280;2563;52.242;7.956;2022-10-30T04:57:23;100670.97;;;14.51;100.00
5574;BME280;2563;52.242;7.956;2022-10-30T04:59:49;100670.47;;;14.41;100.00
5574;BME280;2563;52.242;7.956;2022-10-30T05:02:14;100663.94;;;14.31;100.00
5574;BME280;2563;52.242;7.956;2022-10-30T05:04:40;100674.53;;;14.25;100.00
5574;BME280;2563;52.242;7.956;2022-10-30T05:07:05;100664.19;;;14.25;100.00
5574;BME280;2563;52.242;7.956;2022-10-30T05:09:31;100666.69;;;14.26;100.00
5574;BME280;2563;52.242;7.956;2022-10-30T05:11:57;100664.06;;;14.28;100.00
5574;BME280;2563;52.242;7.956;2022-10-30T05:14:22;100661.53;;;14.26;100.00
5574;BME280;2563;52.242;7.956;2022-10-30T05:16:47;100656.03;;;14.12;100.00
5574;BME280;2563;52.242;7.956;2022-10-30T05:19:12;100649.38;;;14.05;100.00
5574;BME280;2563;52.242;7.956;2022-10-30T05:21:38;100642.25;;;14.12;100.00
5574;BME280;2563;52.242;7.956;2022-10-30T05:24:03;100638.69;;;14.14;100.00
5574;BME280;2563;52.242;7.956;2022-10-30T05:26:28;100635.31;;;14.12;100.00
5574;BME280;2563;52.242;7.956;2022-10-30T05:28:54;100624.16;;;14.10;100.00
5574;BME280;2563;52.242;7.956;2022-10-30T05:31:19;100616.53;;;14.07;100.00
5574;BME280;2563;52.242;7.956;2022-10-30T05:33:44;100614.78;;;14.08;100.00
5574;BME280;2563;52.242;7.956;2022-10-30T05:36:10;100614.56;;;14.14;100.00
5574;BME280;2563;52.242;7.956;2022-10-30T05:38:35;100610.22;;;14.14;100.00
5574;BME280;2563;52.242;7.956;2022-10-30T05:41:00;100613.63;;;14.15;100.00
5574;BME280;2563;52.242;7.956;2022-10-30T05:43:25;100614.22;;;14.23;100.00
5574;BME280;2563;52.242;7.956;2022-10-30T05:45:51;100617.16;;;14.14;100.00
5574;BME280;2563;52.242;7.956;2022-10-30T05:48:16;100610.84;;;13.97;100.00
5574;BME280;2563;52.242;7.956;2022-10-30T05:50:41;100612.28;;;13.82;100.00
5574;BME280;2563;52.242;7.956;2022-10-30T05:53:08;100615.31;;;13.70;100.00
5574;BME280;2563;52.242;7.956;2022-10-30T05:55:33;100610.25;;;13.67;100.00
5574;BME280;2563;52.242;7.956;2022-10-30T05:58:02;100587.81;;;13.68;100.00
5574;BME280;2563;52.242;7.956;2022-10-30T06:00:30;100584.56;;;13.63;100.00
5574;BME280;2563;52.242;7.956;2022-10-30T06:03:04;100576.28;;;13.53;100.00
5574;BME280;2563;52.242;7.956;2022-10-30T06:05:31;100574.47;;;13.55;100.00
5574;BME280;2563;52.242;7.956;2022-10-30T06:07:57;100556.09;;;13.63;100.00
5574;BME280;2563;52.242;7.956;2022-10-30T06:10:23;100546.25;;;13.72;100.00
5574;BME280;2563;52.242;7.956;2022-10-30T06:12:59;100534.88;;;13.76;100.00
5574;BME280;2563;52.242;7.956;2022-10-30T06:15:25;100534.66;;;13.82;100.00
5574;BME280;2563;52.242;7.956;2022-10-30T06:17:51;100535.41;;;13.63;100.00
5574;BME280;2563;52.242;7.956;2022-10-30T06:20:17;100537.50;;;13.53;100.00
5574;BME280;2563;52.242;7.956;2022-10-30T06:23:00;100533.66;;;13.39;100.00
5574;BME280;2563;52.242;7.956;2022-10-30T06:25:26;100534.19;;;13.24;100.00
5574;BME280;2563;52.242;7.956;2022-10-30T06:27:52;100533.38;;;13.22;100.00
5574;BME280;2563;52.242;7.956;2022-10-30T06:30:17;100517.41;;;13.11;100.00
5574;BME280;2563;52.242;7.956;2022-10-30T06:32:43;100512.28;;;13.09;100.00
5574;BME280;2563;52.242;7.956;2022-10-30T06:35:08;100496.78;;;13.09;100.00
5574;BME280;2563;52.242;7.956;2022-10-30T06:37:34;100500.13;;;13.13;100.00
5574;BME280;2563;52.242;7.956;2022-10-30T06:39:59;100497.06;;;13.02;100.00
5574;BME280;2563;52.242;7.956;2022-10-30T06:42:25;100492.13;;;12.95;100.00
5574;BME280;2563;52.242;7.956;2022-10-30T06:44:50;100479.88;;;13.01;100.00
5574;BME280;2563;52.242;7.956;2022-10-30T06:47:16;100483.66;;;12.90;100.00
5574;BME280;2563;52.242;7.956;2022-10-30T06:49:41;100478.59;;;12.87;100.00
5574;BME280;2563;52.242;7.956;2022-10-30T06:52:06;100478.72;;;12.84;100.00
5574;BME280;2563;52.242;7.956;2022-10-30T06:54:32;100477.03;;;12.83;100.00
5574;BME280;2563;52.242;7.956;2022-10-30T06:56:57;100476.94;;;12.86;100.00
5574;BME280;2563;52.242;7.956;2022-10-30T06:59:23;100480.50;;;12.82;100.00
5574;BME280;2563;52.242;7.956;2022-10-30T07:01:48;100473.69;;;12.81;100.00
5574;BME280;2563;52.242;7.956;2022-10-30T07:04:13;100474.50;;;12.82;100.00
5574;BME280;2563;52.242;7.956;2022-10-30T07:06:39;100473.25;;;12.93;100.00
5574;BME280;2563;52.242;7.956;2022-10-30T07:09:04;100476.38;;;13.02;100.00
5574;BME280;2563;52.242;7.956;2022-10-30T07:11:29;100479.97;;;12.97;100.00
5574;BME280;2563;52.242;7.956;2022-10-30T07:13:55;100478.84;;;13.05;100.00
5574;BME280;2563;52.242;7.956;2022-10-30T07:16:20;100482.91;;;13.12;100.00
5574;BME280;2563;52.242;7.956;2022-10-30T07:18:45;100481.78;;;13.19;100.00
5574;BME280;2563;52.242;7.956;2022-10-30T07:21:10;100476.28;;;13.30;100.00
5574;BME280;2563;52.242;7.956;2022-10-30T07:23:36;100484.75;;;13.33;100.00
5574;BME280;2563;52.242;7.956;2022-10-30T07:26:01;100482.91;;;13.37;100.00
5574;BME280;2563;52.242;7.956;2022-10-30T07:28:26;100479.97;;;13.46;100.00
5574;BME280;2563;52.242;7.956;2022-10-30T07:30:52;100491.03;;;13.50;100.00
5574;BME280;2563;52.242;7.956;2022-10-30T07:33:17;100477.78;;;13.59;100.00
5574;BME280;2563;52.242;7.956;2022-10-30T07:35:42;100473.81;;;13.72;100.00
5574;BME280;2563;52.242;7.956;2022-10-30T07:38:11;100469.34;;;13.76;100.00
5574;BME280;2563;52.242;7.956;2022-10-30T07:40:36;100470.03;;;13.81;100.00
5574;BME280;2563;52.242;7.956;2022-10-30T07:43:03;100483.44;;;13.91;100.00
5574;BME280;2563;52.242;7.956;2022-10-30T07:45:30;100481.41;;;13.99;100.00
5574;BME280;2563;52.242;7.956;2022-10-30T07:47:56;100488.81;;;14.08;100.00
5574;BME280;2563;52.242;7.956;2022-10-30T07:50:22;100478.75;;;14.22;100.00
5574;BME280;2563;52.242;7.956;2022-10-30T07:52:47;100486.50;;;14.22;100.00
5574;BME280;2563;52.242;7.956;2022-10-30T07:55:13;100487.97;;;14.30;100.00
5574;BME280;2563;52.242;7.956;2022-10-30T07:57:40;100491.84;;;14.40;100.00
5574;BME280;2563;52.242;7.956;2022-10-30T08:00:08;100485.66;;;14.64;100.00
5574;BME280;2563;52.242;7.956;2022-10-30T08:02:34;100483.84;;;14.66;100.00
5574;BME280;2563;52.242;7.956;2022-10-30T08:05:00;100483.16;;;14.63;100.00
5574;BME280;2563;52.242;7.956;2022-10-30T08:07:34;100491.09;;;14.79;100.00
5574;BME280;2563;52.242;7.956;2022-10-30T08:09:59;100496.81;;;14.87;100.00
5574;BME280;2563;52.242;7.956;2022-10-30T08:12:25;100501.72;;;14.93;100.00
5574;BME280;2563;52.242;7.956;2022-10-30T08:14:51;100507.28;;;15.04;100.00
5574;BME280;2563;52.242;7.956;2022-10-30T08:17:16;100507.94;;;15.09;100.00
5574;BME280;2563;52.242;7.956;2022-10-30T08:19:42;100509.50;;;15.14;100.00
5574;BME280;2563;52.242;7.956;2022-10-30T08:22:09;100507.44;;;15.20;100.00
5574;BME280;2563;52.242;7.956;2022-10-30T08:24:35;100512.31;;;15.28;100.00
5574;BME280;2563;52.242;7.956;2022-10-30T08:27:00;100512.88;;;15.35;100.00
5574;BME280;2563;52.242;7.956;2022-10-30T08:29:25;100508.25;;;15.41;100.00
5574;BME280;2563;52.242;7.956;2022-10-30T08:31:51;100515.97;;;15.43;100.00
5574;BME280;2563;52.242;7.956;2022-10-30T08:34:16;100508.81;;;15.48;100.00
5574;BME280;2563;52.242;7.956;2022-10-30T08:36:41;100500.97;;;15.68;100.00
5574;BME280;2563;52.242;7.956;2022-10-30T08:39:08;100518.41;;;15.85;100.00
5574;BME280;2563;52.242;7.956;2022-10-30T08:41:33;100510.91;;;15.97;100.00
5574;BME280;2563;52.242;7.956;2022-10-30T08:43:58;100513.19;;;16.04;100.00
5574;BME280;2563;52.242;7.956;2022-10-30T08:46:24;100519.59;;;16.14;100.00
5574;BME280;2563;52.242;7.956;2022-10-30T08:48:49;100525.88;;;16.28;100.00
5574;BME280;2563;52.242;7.956;2022-10-30T08:51:14;100522.44;;;16.27;100.00
5574;BME280;2563;52.242;7.956;2022-10-30T08:53:40;100538.75;;;16.31;100.00
5574;BME280;2563;52.242;7.956;2022-10-30T08:56:05;100541.97;;;16.53;100.00
5574;BME280;2563;52.242;7.956;2022-10-30T08:58:30;100542.78;;;16.54;100.00
5574;BME280;2563;52.242;7.956;2022-10-30T09:00:56;100557.78;;;16.49;100.00
5574;BME280;2563;52.242;7.956;2022-10-30T09:03:21;100559.53;;;16.48;100.00
5574;BME280;2563;52.242;7.956;2022-10-30T09:05:47;100559.38;;;16.69;100.00
5574;BME280;2563;52.242;7.956;2022-10-30T09:08:12;100552.41;;;16.88;100.00
5574;BME280;2563;52.242;7.956;2022-10-30T09:10:37;100565.41;;;16.88;100.00
5574;BME280;2563;52.242;7.956;2022-10-30T09:13:03;100572.78;;;17.13;100.00
5574;BME280;2563;52.242;7.956;2022-10-30T09:15:28;100580.66;;;17.62;100.00
5574;BME280;2563;52.242;7.956;2022-10-30T09:17:58;100595.22;;;17.82;100.00
5574;BME280;2563;52.242;7.956;2022-10-30T09:20:24;100610.44;;;17.90;100.00
5574;BME280;2563;52.242;7.956;2022-10-30T09:22:49;100631.72;;;17.98;100.00
5574;BME280;2563;52.242;7.956;2022-10-30T09:25:15;100633.66;;;18.26;100.00
5574;BME280;2563;52.242;7.956;2022-10-30T09:27:41;100653.16;;;18.35;100.00
5574;BME280;2563;52.242;7.956;2022-10-30T09:30:07;100665.19;;;18.54;100.00
5574;BME280;2563;52.242;7.956;2022-10-30T09:32:33;100678.19;;;18.85;100.00
5574;BME280;2563;52.242;7.956;2022-10-30T09:34:58;100699.19;;;18.98;100.00
5574;BME280;2563;52.242;7.956;2022-10-30T09:37:23;100704.06;;;19.20;100.00
5574;BME280;2563;52.242;7.956;2022-10-30T09:39:49;100712.69;;;18.90;100.00
5574;BME280;2563;52.242;7.956;2022-10-30T10:02:36;100721.59;;;19.02;100.00
5574;BME280;2563;52.242;7.956;2022-10-30T10:07:51;100715.34;;;19.05;100.00
5574;BME280;2563;52.242;7.956;2022-10-30T10:10:27;100707.94;;;19.13;100.00
5574;BME280;2563;52.242;7.956;2022-10-30T10:12:57;100698.84;;;19.20;100.00
5574;BME280;2563;52.242;7.956;2022-10-30T10:15:46;100702.28;;;19.21;100.00
5574;BME280;2563;52.242;7.956;2022-10-30T10:18:20;100694.00;;;19.28;100.00
5574;BME280;2563;52.242;7.956;2022-10-30T10:20:51;100686.28;;;19.41;100.00
5574;BME280;2563;52.242;7.956;2022-10-30T10:23:19;100683.19;;;19.49;100.00
5574;BME280;2563;52.242;7.956;2022-10-30T10:25:52;100680.28;;;19.69;100.00
5574;BME280;2563;52.242;7.956;2022-10-30T10:28:45;100682.25;;;19.80;100.00
5574;BME280;2563;52.242;7.956;2022-10-30T10:36:43;100649.22;;;20.76;100.00
5574;BME280;2563;52.242;7.956;2022-10-30T10:47:56;100575.91;;;21.42;100.00
5574;BME280;2563;52.242;7.956;2022-10-30T10:50:27;100548.78;;;21.43;100.00
5574;BME280;2563;52.242;7.956;2022-10-30T10:53:00;100534.94;;;21.54;100.00
5574;BME280;2563;52.242;7.956;2022-10-30T10:55:33;100516.06;;;21.85;100.00
5574;BME280;2563;52.242;7.956;2022-10-30T10:58:06;100494.75;;;22.03;100.00
5574;BME280;2563;52.242;7.956;2022-10-30T11:00:34;100463.53;;;22.11;100.00
5574;BME280;2563;52.242;7.956;2022-10-30T11:05:33;100414.47;;;22.13;100.00
5574;BME280;2563;52.242;7.956;2022-10-30T11:08:24;100398.97;;;22.10;100.00
5574;BME280;2563;52.242;7.956;2022-10-30T11:10:56;100383.09;;;22.12;100.00
5574;BME280;2563;52.242;7.956;2022-10-30T11:13:25;100368.03;;;22.26;100.00
5574;BME280;2563;52.242;7.956;2022-10-30T11:19:00;100365.38;;;22.15;100.00
5574;BME280;2563;52.242;7.956;2022-10-30T11:21:29;100361.34;;;22.22;100.00
5574;BME280;2563;52.242;7.956;2022-10-30T11:23:56;100303.19;;;22.51;100.00
5574;BME280;2563;52.242;7.956;2022-10-30T11:26:26;100292.69;;;22.62;100.00
5574;BME280;2563;52.242;7.956;2022-10-30T11:29:12;100283.16;;;22.50;100.00
5574;BME280;2563;52.242;7.956;2022-10-30T11:31:40;100278.66;;;22.29;100.00
5574;BME280;2563;52.242;7.956;2022-10-30T11:39:10;100275.50;;;22.02;100.00
5574;BME280;2563;52.242;7.956;2022-10-30T11:41:37;100282.59;;;21.77;100.00
5574;BME280;2563;52.242;7.956;2022-10-30T11:44:04;100280.72;;;21.91;100.00
5574;BME280;2563;52.242;7.956;2022-10-30T11:46:29;100279.75;;;21.80;100.00
5574;BME280;2563;52.242;7.956;2022-10-30T11:48:56;100271.19;;;21.90;100.00
5574;BME280;2563;52.242;7.956;2022-10-30T11:51:37;100275.91;;;21.73;100.00
5574;BME280;2563;52.242;7.956;2022-10-30T11:54:05;100272.72;;;21.81;100.00
5574;BME280;2563;52.242;7.956;2022-10-30T11:56:33;100265.00;;;21.79;100.00
5574;BME280;2563;52.242;7.956;2022-10-30T11:59:02;100257.59;;;21.73;100.00
5574;BME280;2563;52.242;7.956;2022-10-30T12:01:35;100254.94;;;21.62;100.00
5574;BME280;2563;52.242;7.956;2022-10-30T12:04:15;100266.06;;;21.41;100.00
5574;BME280;2563;52.242;7.956;2022-10-30T12:06:46;100266.28;;;21.38;100.00
5574;BME280;2563;52.242;7.956;2022-10-30T12:09:19;100268.84;;;21.27;100.00
5574;BME280;2563;52.242;7.956;2022-10-30T12:11:45;100260.59;;;21.44;100.00
5574;BME280;2563;52.242;7.956;2022-10-30T12:14:21;100268.16;;;21.36;100.00
5574;BME280;2563;52.242;7.956;2022-10-30T12:16:52;100266.66;;;21.45;100.00
5574;BME280;2563;52.242;7.956;2022-10-30T12:19:20;100247.84;;;21.40;100.00
5574;BME280;2563;52.242;7.956;2022-10-30T12:21:51;100252.75;;;21.44;100.00
5574;BME280;2563;52.242;7.956;2022-10-30T12:24:32;100246.78;;;21.42;100.00
5574;BME280;2563;52.242;7.956;2022-10-30T12:27:05;100238.41;;;21.37;100.00
5574;BME280;2563;52.242;7.956;2022-10-30T12:29:38;100238.19;;;21.40;100.00
5574;BME280;2563;52.242;7.956;2022-10-30T12:32:06;100235.31;;;21.32;100.00
5574;BME280;2563;52.242;7.956;2022-10-30T12:37:13;100221.78;;;21.38;100.00
5574;BME280;2563;52.242;7.956;2022-10-30T12:39:52;100224.91;;;21.43;100.00
5574;BME280;2563;52.242;7.956;2022-10-30T12:42:18;100213.22;;;21.48;100.00
5574;BME280;2563;52.242;7.956;2022-10-30T12:45:22;100202.25;;;21.42;100.00
5574;BME280;2563;52.242;7.956;2022-10-30T12:47:55;100205.03;;;21.41;100.00
5574;BME280;2563;52.242;7.956;2022-10-30T12:50:35;100211.16;;;21.29;100.00
5574;BME280;2563;52.242;7.956;2022-10-30T12:53:26;100205.63;;;21.56;100.00
5574;BME280;2563;52.242;7.956;2022-10-30T12:55:59;100202.31;;;21.54;100.00
5574;BME280;2563;52.242;7.956;2022-10-30T12:58:49;100207.06;;;21.49;100.00
5574;BME280;2563;52.242;7.956;2022-10-30T13:01:25;100194.19;;;21.45;100.00
5574;BME280;2563;52.242;7.956;2022-10-30T13:04:09;100205.53;;;21.22;100.00
5574;BME280;2563;52.242;7.956;2022-10-30T13:06:55;100211.69;;;21.21;100.00
5574;BME280;2563;52.242;7.956;2022-10-30T13:12:33;100205.13;;;21.39;100.00
5574;BME280;2563;52.242;7.956;2022-10-30T13:15:13;100194.81;;;21.60;100.00
5574;BME280;2563;52.242;7.956;2022-10-30T13:17:41;100176.50;;;21.72;100.00
5574;BME280;2563;52.242;7.956;2022-10-30T13:20:13;100174.72;;;21.72;100.00
5574;BME280;2563;52.242;7.956;2022-10-30T13:22:50;100166.84;;;21.72;100.00
5574;BME280;2563;52.242;7.956;2022-10-30T13:28:04;100131.34;;;21.57;100.00
5574;BME280;2563;52.242;7.956;2022-10-30T13:30:38;100130.88;;;21.63;100.00
5574;BME280;2563;52.242;7.956;2022-10-30T13:33:24;100112.31;;;21.77;100.00
5574;BME280;2563;52.242;7.956;2022-10-30T13:36:06;100110.41;;;21.68;100.00
5574;BME280;2563;52.242;7.956;2022-10-30T13:38:46;100090.06;;;21.72;100.00
5574;BME280;2563;52.242;7.956;2022-10-30T13:52:13;100099.41;;;21.29;100.00
5574;BME280;2563;52.242;7.956;2022-10-30T13:54:44;100109.94;;;21.16;100.00
5574;BME280;2563;52.242;7.956;2022-10-30T14:06:06;100084.13;;;21.00;100.00
5574;BME280;2563;52.242;7.956;2022-10-30T14:08:03;100079.56;;;20.91;100.00
5574;BME280;2563;52.242;7.956;2022-10-30T14:10:46;100094.50;;;20.78;100.00
5574;BME280;2563;52.242;7.956;2022-10-30T14:16:01;100100.66;;;20.66;100.00
5574;BME280;2563;52.242;7.956;2022-10-30T14:24:02;100156.84;;;20.23;100.00
5574;BME280;2563;52.242;7.956;2022-10-30T14:26:29;100163.56;;;20.14;100.00
5574;BME280;2563;52.242;7.956;2022-10-30T14:28:54;100177.13;;;20.19;100.00
5574;BME280;2563;52.242;7.956;2022-10-30T14:31:33;100178.09;;;20.18;100.00
5574;BME280;2563;52.242;7.956;2022-10-30T14:33:59;100180.47;;;20.22;100.00
5574;BME280;2563;52.242;7.956;2022-10-30T14:44:59;100182.97;;;20.23;100.00
5574;BME280;2563;52.242;7.956;2022-10-30T14:57:52;100198.50;;;19.88;100.00
5574;BME280;2563;52.242;7.956;2022-10-30T15:14:01;100235.50;;;19.29;100.00
5574;BME280;2563;52.242;7.956;2022-10-30T15:16:30;100239.41;;;19.09;100.00
5574;BME280;2563;52.242;7.956;2022-10-30T15:19:03;100257.19;;;18.89;100.00
5574;BME280;2563;52.242;7.956;2022-10-30T15:21:30;100260.56;;;18.77;100.00
5574;BME280;2563;52.242;7.956;2022-10-30T15:23:59;100261.47;;;18.62;100.00
5574;BME280;2563;52.242;7.956;2022-10-30T15:26:31;100287.56;;;18.47;100.00
5574;BME280;2563;52.242;7.956;2022-10-30T15:28:59;100309.34;;;18.32;100.00